Time;durP1;ratioP1;P1;durP2;ratioP2;P2;SDS_P1;SDS_P2;PMS_P1;PMS_P2;Temp;Humidity;BMP_temperature;BMP_pressure;BME280_temperature;BME280_humidity;BME280_pressure;Samples;Min_cycle;Max_cycle;Signal;HPM_P1;HPM_P2
2022/08/04 00:00:18;;;;;;;5.73;3.90;;;;;;;;;;5047139;28;20811;-72
2022/08/04 00:02:53;;;;;;;10.60;3.97;;;;;;;;;;5046282;28;20211;-72
2022/08/04 00:05:29;;;;;;;5.27;3.80;;;;;;;;;;5046446;28;20217;-72
2022/08/04 00:08:00;;;;;;;5.07;3.50;;;;;;;;;;5044241;28;20214;-71
2022/08/04 00:10:29;;;;;;;4.73;3.90;;;;;;;;;;5044997;28;20191;-71
2022/08/04 00:12:57;;;;;;;4.57;3.83;;;;;;;;;;5044838;28;20692;-71
2022/08/04 00:15:24;;;;;;;5.13;3.60;;;;;;;;;;5045084;28;20208;-71
2022/08/04 00:17:54;;;;;;;6.23;3.73;;;;;;;;;;5045185;28;20219;-72
2022/08/04 00:20:22;;;;;;;7.90;4.40;;;;;;;;;;5045416;28;20792;-71
2022/08/04 00:22:52;;;;;;;7.17;4.10;;;;;;;;;;5043435;28;20234;-72
2022/08/04 00:25:20;;;;;;;8.50;4.27;;;;;;;;;;5042739;28;20235;-72
2022/08/04 00:27:49;;;;;;;6.03;3.60;;;;;;;;;;5048108;28;20230;-71
2022/08/04 00:30:16;;;;;;;4.63;3.57;;;;;;;;;;5043863;28;20210;-72
2022/08/04 00:32:43;;;;;;;6.93;4.70;;;;;;;;;;5048204;28;20202;-72
2022/08/04 00:35:13;;;;;;;10.63;3.63;;;;;;;;;;5042486;28;20211;-72
2022/08/04 00:37:41;;;;;;;6.73;3.50;;;;;;;;;;5043490;28;20225;-72
2022/08/04 00:40:13;;;;;;;8.23;3.40;;;;;;;;;;5046060;28;20224;-72
2022/08/04 00:42:45;;;;;;;7.17;3.50;;;;;;;;;;5043336;28;20199;-72
2022/08/04 00:45:26;;;;;;;8.20;3.43;;;;;;;;;;5044240;28;20213;-71
2022/08/04 00:48:01;;;;;;;4.57;3.70;;;;;;;;;;5044222;28;20867;-72
2022/08/04 00:50:31;;;;;;;10.90;3.60;;;;;;;;;;5045128;28;20221;-72
2022/08/04 00:53:05;;;;;;;7.53;3.20;;;;;;;;;;5042142;28;20298;-69
2022/08/04 00:55:43;;;;;;;11.30;4.00;;;;;;;;;;5045449;28;20665;-69
2022/08/04 00:58:19;;;;;;;5.50;3.47;;;;;;;;;;5043804;28;20209;-71
2022/08/04 01:00:54;;;;;;;6.97;3.37;;;;;;;;;;5045714;28;20739;-70
2022/08/04 01:03:24;;;;;;;5.83;3.63;;;;;;;;;;5047835;28;20745;-72
2022/08/04 01:05:57;;;;;;;5.97;4.23;;;;;;;;;;5047335;28;20233;-72
2022/08/04 01:08:42;;;;;;;7.50;3.63;;;;;;;;;;5046696;28;20198;-71
2022/08/04 01:11:14;;;;;;;5.20;3.70;;;;;;;;;;5036794;28;20733;-72
2022/08/04 01:13:52;;;;;;;5.03;3.73;;;;;;;;;;5041764;28;20290;-71
2022/08/04 01:16:25;;;;;;;8.00;3.97;;;;;;;;;;5041811;28;20597;-72
2022/08/04 01:18:56;;;;;;;4.77;3.43;;;;;;;;;;5043780;28;20290;-72
2022/08/04 01:21:38;;;;;;;4.90;3.57;;;;;;;;;;5043031;28;20715;-71
2022/08/04 01:24:26;;;;;;;9.07;3.83;;;;;;;;;;5035872;28;20212;-72
2022/08/04 01:26:55;;;;;;;4.33;3.27;;;;;;;;;;5011209;28;20314;-72
2022/08/04 01:29:24;;;;;;;5.27;3.60;;;;;;;;;;5043509;28;20205;-71
2022/08/04 01:31:56;;;;;;;6.60;3.83;;;;;;;;;;5039509;28;20638;-73
2022/08/04 01:34:24;;;;;;;5.83;3.70;;;;;;;;;;5036387;28;20688;-72
2022/08/04 01:36:58;;;;;;;4.47;3.47;;;;;;;;;;5035222;28;20315;-72
2022/08/04 01:39:40;;;;;;;7.47;4.20;;;;;;;;;;5037317;28;20202;-72
2022/08/04 01:42:08;;;;;;;5.50;3.73;;;;;;;;;;5035214;28;20229;-72
2022/08/04 01:44:38;;;;;;;12.40;3.70;;;;;;;;;;5033677;28;20204;-72
2022/08/04 01:47:05;;;;;;;6.60;3.60;;;;;;;;;;5033681;28;20299;-72
2022/08/04 01:49:33;;;;;;;5.60;4.00;;;;;;;;;;5033271;28;20285;-71
2022/08/04 01:52:00;;;;;;;9.30;3.93;;;;;;;;;;5037551;28;20200;-73
2022/08/04 01:54:27;;;;;;;5.03;3.83;;;;;;;;;;5036016;28;20297;-72
2022/08/04 01:56:55;;;;;;;4.77;3.70;;;;;;;;;;5034379;28;20233;-72
2022/08/04 01:59:23;;;;;;;6.07;3.60;;;;;;;;;;5036237;28;20207;-72
2022/08/04 02:01:51;;;;;;;6.00;3.50;;;;;;;;;;5032491;28;20690;-72
2022/08/04 02:04:19;;;;;;;5.10;3.73;;;;;;;;;;5038045;28;20195;-73
2022/08/04 02:06:52;;;;;;;5.27;3.70;;;;;;;;;;5034356;28;20228;-72
2022/08/04 02:09:24;;;;;;;7.73;4.00;;;;;;;;;;5033362;28;20557;-72
2022/08/04 02:12:00;;;;;;;8.80;4.20;;;;;;;;;;5034345;28;20200;-73
2022/08/04 02:14:44;;;;;;;4.93;3.57;;;;;;;;;;5033579;28;21487;-72
2022/08/04 02:17:13;;;;;;;7.37;3.80;;;;;;;;;;5033713;28;20219;-72
2022/08/04 02:19:52;;;;;;;6.63;3.70;;;;;;;;;;5033721;28;20621;-72
2022/08/04 02:22:22;;;;;;;6.60;3.93;;;;;;;;;;5034453;28;20218;-72
2022/08/04 02:24:50;;;;;;;6.50;4.27;;;;;;;;;;5035547;28;20206;-72
2022/08/04 02:27:22;;;;;;;5.73;3.70;;;;;;;;;;5044759;28;20227;-71
2022/08/04 02:29:52;;;;;;;6.17;4.00;;;;;;;;;;5045031;28;20213;-71
2022/08/04 02:32:21;;;;;;;8.43;3.73;;;;;;;;;;5045359;28;20653;-71
2022/08/04 02:34:52;;;;;;;8.57;3.90;;;;;;;;;;5043016;28;20340;-71
2022/08/04 02:37:21;;;;;;;5.90;3.53;;;;;;;;;;5042430;28;20223;-71
2022/08/04 02:39:50;;;;;;;6.53;3.80;;;;;;;;;;5043620;28;20207;-72
2022/08/04 02:42:18;;;;;;;7.63;3.57;;;;;;;;;;5040330;28;20315;-72
2022/08/04 02:44:48;;;;;;;8.63;3.73;;;;;;;;;;5042641;28;20221;-72
2022/08/04 02:47:15;;;;;;;4.83;3.60;;;;;;;;;;5042805;28;20317;-72
2022/08/04 02:49:45;;;;;;;7.47;3.63;;;;;;;;;;5043883;28;20566;-72
2022/08/04 02:52:14;;;;;;;9.97;4.00;;;;;;;;;;5044049;28;20199;-72
2022/08/04 02:54:42;;;;;;;5.00;3.70;;;;;;;;;;5044238;28;20654;-72
2022/08/04 02:57:10;;;;;;;6.43;3.77;;;;;;;;;;5044832;28;20229;-72
2022/08/04 02:59:48;;;;;;;4.03;3.50;;;;;;;;;;5041240;28;20214;-69
2022/08/04 03:02:16;;;;;;;8.03;4.10;;;;;;;;;;5038606;28;20230;-70
2022/08/04 03:04:52;;;;;;;9.27;3.70;;;;;;;;;;5043292;28;20199;-71
2022/08/04 03:07:37;;;;;;;7.53;3.50;;;;;;;;;;5044281;28;20305;-71
2022/08/04 03:10:22;;;;;;;6.70;3.80;;;;;;;;;;5044704;28;20199;-71
2022/08/04 03:13:06;;;;;;;11.60;4.23;;;;;;;;;;5036434;28;20199;-71
2022/08/04 03:15:55;;;;;;;17.47;4.33;;;;;;;;;;5045874;28;20555;-72
2022/08/04 03:18:46;;;;;;;33.20;5.30;;;;;;;;;;5042533;28;20670;-73
2022/08/04 03:21:23;;;;;;;23.50;5.23;;;;;;;;;;5039588;28;20391;-72
2022/08/04 03:24:05;;;;;;;29.93;4.93;;;;;;;;;;5042214;28;20684;-72
2022/08/04 03:26:46;;;;;;;11.73;4.37;;;;;;;;;;5046978;28;20226;-72
2022/08/04 03:29:32;;;;;;;8.43;4.20;;;;;;;;;;5042719;28;20206;-72
2022/08/04 03:32:17;;;;;;;10.07;4.33;;;;;;;;;;5045145;28;20205;-72
2022/08/04 03:35:03;;;;;;;11.33;4.20;;;;;;;;;;5045569;28;20285;-72
2022/08/04 03:37:39;;;;;;;15.73;4.67;;;;;;;;;;5045887;28;20239;-72
2022/08/04 03:40:27;;;;;;;18.60;4.40;;;;;;;;;;5045766;28;20661;-72
2022/08/04 03:43:18;;;;;;;15.30;4.80;;;;;;;;;;5045939;28;20226;-72
2022/08/04 03:46:05;;;;;;;14.80;4.60;;;;;;;;;;5045156;28;20827;-72
2022/08/04 03:48:52;;;;;;;14.10;4.50;;;;;;;;;;5042264;28;20293;-72
2022/08/04 03:54:34;;;;;;;6.83;4.53;;;;;;;;;;5044771;28;20210;-72
2022/08/04 03:57:19;;;;;;;8.43;4.30;;;;;;;;;;5037257;28;20241;-72
2022/08/04 03:59:56;;;;;;;7.57;4.10;;;;;;;;;;5047649;28;20649;-72
2022/08/04 04:02:34;;;;;;;8.67;4.13;;;;;;;;;;5045127;28;20222;-72
2022/08/04 04:05:13;;;;;;;11.40;4.47;;;;;;;;;;5044043;28;20202;-72
2022/08/04 04:07:58;;;;;;;11.40;4.20;;;;;;;;;;5043042;28;20223;-72
2022/08/04 04:10:31;;;;;;;10.50;4.40;;;;;;;;;;5046704;28;20747;-72
2022/08/04 04:13:22;;;;;;;8.93;3.93;;;;;;;;;;5045482;28;20545;-72
2022/08/04 04:16:00;;;;;;;9.37;4.10;;;;;;;;;;5031688;28;20231;-72
2022/08/04 04:18:39;;;;;;;5.67;3.90;;;;;;;;;;5048195;28;20626;-72
2022/08/04 04:21:26;;;;;;;7.10;4.00;;;;;;;;;;5044753;28;20316;-72
2022/08/04 04:24:01;;;;;;;7.50;3.90;;;;;;;;;;5047639;28;20217;-72
2022/08/04 04:26:41;;;;;;;8.97;4.00;;;;;;;;;;5047738;28;20234;-72
2022/08/04 04:29:17;;;;;;;7.63;4.20;;;;;;;;;;5045655;28;20215;-72
2022/08/04 04:31:54;;;;;;;14.17;4.50;;;;;;;;;;5042381;28;20237;-72
2022/08/04 04:34:29;;;;;;;28.27;4.57;;;;;;;;;;5044392;28;20203;-72
2022/08/04 04:37:04;;;;;;;24.83;5.40;;;;;;;;;;5039888;28;20234;-71
2022/08/04 04:39:33;;;;;;;17.63;4.40;;;;;;;;;;5042835;28;20218;-72
2022/08/04 04:42:08;;;;;;;12.80;4.47;;;;;;;;;;5041739;28;20476;-72
2022/08/04 04:44:42;;;;;;;10.67;4.03;;;;;;;;;;5043720;28;20213;-72
2022/08/04 04:47:15;;;;;;;11.93;4.00;;;;;;;;;;5045628;28;20230;-72
2022/08/04 04:49:47;;;;;;;16.03;4.23;;;;;;;;;;5047338;28;20206;-72
2022/08/04 04:52:18;;;;;;;11.83;4.10;;;;;;;;;;5045171;28;20293;-70
2022/08/04 04:54:52;;;;;;;14.33;4.23;;;;;;;;;;5044767;28;20300;-71
2022/08/04 04:57:20;;;;;;;7.63;4.07;;;;;;;;;;5044953;28;20214;-72
2022/08/04 04:59:49;;;;;;;8.90;3.27;;;;;;;;;;5043291;28;20199;-72
2022/08/04 05:02:34;;;;;;;11.67;3.87;;;;;;;;;;5042102;28;20227;-72
2022/08/04 05:05:20;;;;;;;10.80;4.40;;;;;;;;;;5047162;28;20200;-72
2022/08/04 05:07:57;;;;;;;8.20;3.60;;;;;;;;;;5041242;28;20223;-72
2022/08/04 05:10:31;;;;;;;12.63;3.97;;;;;;;;;;5040569;28;20257;-72
2022/08/04 05:13:07;;;;;;;7.50;3.97;;;;;;;;;;5040256;28;20199;-72
2022/08/04 05:15:36;;;;;;;6.03;3.43;;;;;;;;;;5042196;28;20224;-71
2022/08/04 05:18:07;;;;;;;8.13;3.67;;;;;;;;;;5041804;28;20241;-72
2022/08/04 05:20:36;;;;;;;8.47;3.70;;;;;;;;;;5043025;28;20285;-72
2022/08/04 05:23:08;;;;;;;17.93;3.93;;;;;;;;;;5043077;28;20518;-72
2022/08/04 05:25:36;;;;;;;8.03;3.80;;;;;;;;;;5041557;28;20670;-71
2022/08/04 05:28:05;;;;;;;12.40;3.93;;;;;;;;;;5042333;28;20653;-72
2022/08/04 05:30:35;;;;;;;7.97;4.07;;;;;;;;;;5040962;28;20199;-72
2022/08/04 05:33:05;;;;;;;8.80;3.50;;;;;;;;;;5042646;28;20657;-72
2022/08/04 05:35:35;;;;;;;10.03;3.73;;;;;;;;;;5038873;28;20272;-73
2022/08/04 05:38:03;;;;;;;9.27;3.73;;;;;;;;;;5043469;28;20359;-72
2022/08/04 05:40:30;;;;;;;16.47;4.03;;;;;;;;;;5041728;28;20295;-70
2022/08/04 05:42:58;;;;;;;6.30;3.60;;;;;;;;;;5040585;28;20667;-69
2022/08/04 05:45:25;;;;;;;5.87;3.33;;;;;;;;;;5043273;28;20200;-72
2022/08/04 05:47:53;;;;;;;11.57;3.60;;;;;;;;;;5040417;28;20296;-72
2022/08/04 05:50:21;;;;;;;9.90;3.70;;;;;;;;;;5040008;28;20665;-72
2022/08/04 05:52:50;;;;;;;9.67;4.03;;;;;;;;;;5039576;28;20206;-72
2022/08/04 05:55:18;;;;;;;8.10;3.93;;;;;;;;;;5042746;28;20215;-72
2022/08/04 05:57:47;;;;;;;15.67;4.57;;;;;;;;;;5043983;28;20227;-72
2022/08/04 06:00:14;;;;;;;5.20;3.90;;;;;;;;;;5041155;28;20214;-72
2022/08/04 06:02:42;;;;;;;9.97;3.80;;;;;;;;;;5041232;28;20222;-72
2022/08/04 06:05:10;;;;;;;8.33;4.00;;;;;;;;;;5037261;28;20239;-72
2022/08/04 06:07:37;;;;;;;5.70;3.80;;;;;;;;;;5041593;28;20269;-72
2022/08/04 06:10:07;;;;;;;7.87;4.10;;;;;;;;;;5042483;28;20279;-72
2022/08/04 06:12:37;;;;;;;6.90;3.57;;;;;;;;;;5037295;28;20199;-72
2022/08/04 06:15:05;;;;;;;7.63;3.70;;;;;;;;;;5042660;28;20735;-72
2022/08/04 06:17:33;;;;;;;8.77;3.60;;;;;;;;;;5031304;28;20234;-73
2022/08/04 06:20:01;;;;;;;6.10;3.83;;;;;;;;;;5038160;28;20209;-72
2022/08/04 06:22:30;;;;;;;6.50;3.80;;;;;;;;;;5039487;28;20230;-72
2022/08/04 06:24:58;;;;;;;9.00;3.60;;;;;;;;;;5036365;28;20207;-72
2022/08/04 06:27:27;;;;;;;13.13;4.03;;;;;;;;;;5037233;28;20313;-73
2022/08/04 06:29:54;;;;;;;8.00;3.90;;;;;;;;;;5037261;28;20677;-70
2022/08/04 06:32:26;;;;;;;10.03;4.00;;;;;;;;;;5031671;28;20203;-71
2022/08/04 06:34:54;;;;;;;4.80;3.60;;;;;;;;;;5034469;28;20294;-69
2022/08/04 06:37:22;;;;;;;12.23;3.77;;;;;;;;;;5038709;28;20238;-71
2022/08/04 06:39:50;;;;;;;7.07;3.40;;;;;;;;;;5039507;28;20309;-71
2022/08/04 06:42:17;;;;;;;9.50;3.97;;;;;;;;;;5040046;28;20228;-71
2022/08/04 06:44:47;;;;;;;6.23;3.23;;;;;;;;;;5039596;28;20300;-71
2022/08/04 06:47:17;;;;;;;11.03;3.63;;;;;;;;;;5042027;28;20702;-71
2022/08/04 06:49:46;;;;;;;6.93;3.63;;;;;;;;;;5041889;28;20258;-70
2022/08/04 06:52:16;;;;;;;5.83;3.20;;;;;;;;;;5039532;28;20299;-71
2022/08/04 06:54:43;;;;;;;5.13;3.50;;;;;;;;;;5039112;28;20234;-71
2022/08/04 06:57:12;;;;;;;6.77;3.07;;;;;;;;;;5041115;28;20710;-71
2022/08/04 06:59:40;;;;;;;6.53;3.03;;;;;;;;;;5043832;28;20201;-71
2022/08/04 07:02:12;;;;;;;9.90;3.33;;;;;;;;;;5041195;28;20646;-71
2022/08/04 07:04:39;;;;;;;6.30;2.90;;;;;;;;;;5043693;28;20200;-71
2022/08/04 07:07:06;;;;;;;8.63;3.27;;;;;;;;;;5049986;28;20223;-71
2022/08/04 07:09:33;;;;;;;4.50;2.83;;;;;;;;;;5048416;28;20306;-71
2022/08/04 07:12:02;;;;;;;6.00;2.67;;;;;;;;;;5046976;28;20231;-71
2022/08/04 07:14:29;;;;;;;6.50;3.10;;;;;;;;;;5043453;28;20214;-71
2022/08/04 07:16:56;;;;;;;8.93;2.80;;;;;;;;;;5049665;28;20273;-71
2022/08/04 07:19:25;;;;;;;5.70;2.80;;;;;;;;;;5047316;28;20324;-71
2022/08/04 07:21:52;;;;;;;8.43;2.83;;;;;;;;;;5043441;28;20295;-71
2022/08/04 07:24:19;;;;;;;7.30;2.70;;;;;;;;;;5047483;28;20309;-71
2022/08/04 07:26:50;;;;;;;6.10;2.60;;;;;;;;;;5048371;28;20322;-71
2022/08/04 07:29:17;;;;;;;6.95;2.60;;;;;;;;;;5044425;28;20286;-71
2022/08/04 07:31:45;;;;;;;5.72;2.80;;;;;;;;;;5041845;28;20670;-72
2022/08/04 07:34:12;;;;;;;5.55;3.15;;;;;;;;;;5036690;28;20207;-73
2022/08/04 07:36:41;;;;;;;4.80;3.10;;;;;;;;;;5041043;28;20598;-73
2022/08/04 07:39:08;;;;;;;8.83;3.10;;;;;;;;;;5039228;28;20200;-73
2022/08/04 07:41:36;;;;;;;7.30;2.60;;;;;;;;;;5043761;28;20203;-73
2022/08/04 07:44:03;;;;;;;4.88;2.60;;;;;;;;;;5045475;28;20233;-73
2022/08/04 07:46:30;;;;;;;5.88;3.00;;;;;;;;;;5045120;28;20319;-70
2022/08/04 07:48:58;;;;;;;8.43;2.70;;;;;;;;;;5047058;28;20200;-70
2022/08/04 07:51:25;;;;;;;4.72;2.60;;;;;;;;;;5045301;28;20294;-71
2022/08/04 07:53:54;;;;;;;3.60;2.70;;;;;;;;;;5045137;28;20580;-70
2022/08/04 07:56:22;;;;;;;7.73;2.83;;;;;;;;;;5045617;28;20226;-71
2022/08/04 07:58:49;;;;;;;6.23;3.10;;;;;;;;;;5045902;28;20212;-70
2022/08/04 08:01:16;;;;;;;8.52;2.33;;;;;;;;;;5044583;28;20267;-71
2022/08/04 08:03:44;;;;;;;6.55;2.63;;;;;;;;;;5045399;28;20227;-72
2022/08/04 08:06:11;;;;;;;4.72;2.33;;;;;;;;;;5046557;28;20263;-72
2022/08/04 08:08:38;;;;;;;6.35;2.20;;;;;;;;;;5049238;28;20293;-71
2022/08/04 08:11:08;;;;;;;9.50;2.70;;;;;;;;;;5046737;28;20213;-73
2022/08/04 08:13:35;;;;;;;6.78;2.50;;;;;;;;;;5045200;28;20249;-71
2022/08/04 08:16:03;;;;;;;5.75;2.63;;;;;;;;;;5042659;28;20613;-71
2022/08/04 08:18:30;;;;;;;9.45;2.20;;;;;;;;;;5045903;28;20205;-71
2022/08/04 08:20:58;;;;;;;5.72;2.40;;;;;;;;;;5045910;28;20215;-71
2022/08/04 08:23:26;;;;;;;6.00;2.30;;;;;;;;;;5041474;28;20224;-71
2022/08/04 08:25:53;;;;;;;5.75;2.65;;;;;;;;;;5049166;28;20247;-71
2022/08/04 08:28:21;;;;;;;5.97;2.25;;;;;;;;;;5047699;28;20320;-72
2022/08/04 08:30:49;;;;;;;6.18;2.75;;;;;;;;;;5046366;28;20285;-72
2022/08/04 08:33:16;;;;;;;13.32;2.90;;;;;;;;;;5047351;28;20282;-72
2022/08/04 08:35:49;;;;;;;13.30;2.97;;;;;;;;;;5047778;28;20637;-72
2022/08/04 08:38:17;;;;;;;9.55;2.70;;;;;;;;;;5044167;28;20273;-72
2022/08/04 08:40:49;;;;;;;5.65;2.47;;;;;;;;;;5046337;28;20210;-72
2022/08/04 08:43:30;;;;;;;9.80;2.70;;;;;;;;;;5044480;28;20321;-72
2022/08/04 08:46:12;;;;;;;4.20;2.63;;;;;;;;;;5036492;28;20222;-72
2022/08/04 08:48:54;;;;;;;5.97;2.38;;;;;;;;;;5036883;28;20737;-71
2022/08/04 08:51:31;;;;;;;4.72;2.55;;;;;;;;;;5038770;28;20289;-72
2022/08/04 08:54:04;;;;;;;8.98;2.58;;;;;;;;;;5036495;28;20206;-72
2022/08/04 08:56:34;;;;;;;13.27;2.78;;;;;;;;;;5040889;28;20252;-72
2022/08/04 08:59:09;;;;;;;8.82;2.70;;;;;;;;;;5040530;28;20199;-72
2022/08/04 09:01:47;;;;;;;5.40;2.88;;;;;;;;;;5039384;28;20198;-72
2022/08/04 09:04:29;;;;;;;5.63;2.90;;;;;;;;;;5039421;28;20305;-72
2022/08/04 09:07:17;;;;;;;6.95;2.92;;;;;;;;;;5042369;28;20228;-72
2022/08/04 09:09:53;;;;;;;8.90;3.17;;;;;;;;;;5027004;28;20195;-72
2022/08/04 09:12:26;;;;;;;9.27;2.92;;;;;;;;;;5042354;28;20202;-72
2022/08/04 09:15:00;;;;;;;7.53;3.10;;;;;;;;;;5040698;28;20293;-72
2022/08/04 09:17:28;;;;;;;7.00;2.77;;;;;;;;;;5039819;28;20229;-72
2022/08/04 09:19:59;;;;;;;13.53;2.47;;;;;;;;;;5039669;28;20210;-72
2022/08/04 09:22:31;;;;;;;8.90;2.75;;;;;;;;;;5038898;28;20212;-72
2022/08/04 09:25:01;;;;;;;7.70;3.00;;;;;;;;;;5036882;28;20290;-72
2022/08/04 09:27:35;;;;;;;7.57;2.80;;;;;;;;;;5039367;28;20314;-72
2022/08/04 09:30:06;;;;;;;5.55;2.67;;;;;;;;;;5043594;28;20205;-73
2022/08/04 09:32:37;;;;;;;4.10;2.58;;;;;;;;;;5042181;28;20275;-71
2022/08/04 09:35:11;;;;;;;8.70;2.80;;;;;;;;;;5041534;28;20214;-73
2022/08/04 09:37:41;;;;;;;7.80;2.37;;;;;;;;;;5034627;28;20233;-72
2022/08/04 09:40:12;;;;;;;6.57;2.27;;;;;;;;;;5042125;28;20231;-72
2022/08/04 09:42:44;;;;;;;9.67;2.30;;;;;;;;;;5041567;28;20283;-73
2022/08/04 09:45:19;;;;;;;6.03;2.33;;;;;;;;;;5038581;28;20293;-73
2022/08/04 09:47:48;;;;;;;3.97;2.20;;;;;;;;;;5043418;28;20592;-72
2022/08/04 09:50:27;;;;;;;6.00;2.40;;;;;;;;;;5038185;28;20722;-72
2022/08/04 09:52:58;;;;;;;7.43;2.20;;;;;;;;;;5041274;28;20204;-72
2022/08/04 09:55:47;;;;;;;8.33;2.70;;;;;;;;;;5037799;28;20228;-73
2022/08/04 09:58:21;;;;;;;6.00;2.27;;;;;;;;;;5043376;28;20218;-72
2022/08/04 10:00:51;;;;;;;5.55;2.50;;;;;;;;;;5035176;28;20207;-73
2022/08/04 10:03:19;;;;;;;7.90;2.40;;;;;;;;;;5029248;28;20748;-73
2022/08/04 10:05:55;;;;;;;2.95;2.13;;;;;;;;;;5034552;28;20338;-73
2022/08/04 10:08:30;;;;;;;6.43;2.30;;;;;;;;;;5035879;28;20200;-72
2022/08/04 10:11:00;;;;;;;10.07;2.20;;;;;;;;;;5038551;28;20209;-73
2022/08/04 10:13:34;;;;;;;5.82;2.20;;;;;;;;;;5041714;28;20235;-73
2022/08/04 10:16:06;;;;;;;6.63;2.38;;;;;;;;;;5037267;28;20222;-73
2022/08/04 10:18:49;;;;;;;2.92;2.03;;;;;;;;;;5031644;28;20211;-73
2022/08/04 10:21:20;;;;;;;3.88;2.70;;;;;;;;;;5037620;28;20704;-72
2022/08/04 10:23:53;;;;;;;4.60;2.05;;;;;;;;;;5037486;28;20226;-72
2022/08/04 10:26:29;;;;;;;6.13;1.98;;;;;;;;;;5040134;28;20245;-72
2022/08/04 10:28:58;;;;;;;7.18;2.40;;;;;;;;;;5036841;28;20211;-72
2022/08/04 10:31:29;;;;;;;5.93;2.13;;;;;;;;;;5038783;28;20210;-72
2022/08/04 10:34:00;;;;;;;5.38;2.17;;;;;;;;;;5040484;28;20211;-72
2022/08/04 10:36:29;;;;;;;2.70;1.80;;;;;;;;;;5041306;28;20226;-73
2022/08/04 10:38:58;;;;;;;12.13;2.30;;;;;;;;;;5039746;28;20305;-72
2022/08/04 10:41:28;;;;;;;6.63;2.17;;;;;;;;;;5034566;28;20229;-73
2022/08/04 10:44:02;;;;;;;6.30;2.05;;;;;;;;;;5040798;28;20230;-73
2022/08/04 10:46:33;;;;;;;2.47;1.70;;;;;;;;;;5036969;28;20341;-72
2022/08/04 10:49:01;;;;;;;4.03;1.17;;;;;;;;;;5037514;28;20230;-73
2022/08/04 10:51:30;;;;;;;4.07;1.40;;;;;;;;;;5040714;28;20230;-72
2022/08/04 10:54:00;;;;;;;3.40;1.45;;;;;;;;;;5038874;28;20204;-73
2022/08/04 10:56:32;;;;;;;3.35;1.38;;;;;;;;;;5042708;28;20221;-72
2022/08/04 10:59:03;;;;;;;2.67;1.30;;;;;;;;;;5035669;28;20209;-72
2022/08/04 11:01:33;;;;;;;2.80;1.40;;;;;;;;;;5041184;28;20199;-73
2022/08/04 11:04:02;;;;;;;3.30;1.40;;;;;;;;;;5038186;28;20221;-73
2022/08/04 11:06:29;;;;;;;4.47;1.50;;;;;;;;;;5042717;28;20224;-73
2022/08/04 11:08:57;;;;;;;2.92;1.30;;;;;;;;;;5039488;28;20293;-72
2022/08/04 11:11:30;;;;;;;2.75;1.17;;;;;;;;;;5033542;28;20232;-73
2022/08/04 11:14:01;;;;;;;1.52;1.20;;;;;;;;;;5037259;28;20195;-72
2022/08/04 11:16:30;;;;;;;2.00;1.00;;;;;;;;;;5041747;28;20716;-72
2022/08/04 11:19:07;;;;;;;1.77;1.00;;;;;;;;;;5040454;28;20210;-72
2022/08/04 11:21:36;;;;;;;1.23;0.95;;;;;;;;;;5038685;28;20212;-72
2022/08/04 11:24:04;;;;;;;3.30;1.30;;;;;;;;;;5038578;28;20228;-72
2022/08/04 11:26:37;;;;;;;4.60;1.10;;;;;;;;;;5042184;28;20750;-73
2022/08/04 11:29:06;;;;;;;2.58;1.10;;;;;;;;;;5038702;28;20214;-73
2022/08/04 11:31:36;;;;;;;2.45;1.27;;;;;;;;;;5041541;28;20202;-73
2022/08/04 11:34:06;;;;;;;3.67;1.02;;;;;;;;;;5039809;28;20213;-73
2022/08/04 11:36:37;;;;;;;1.50;1.15;;;;;;;;;;5040978;28;20330;-73
2022/08/04 11:39:07;;;;;;;5.80;1.75;;;;;;;;;;5042942;28;20212;-73
2022/08/04 11:41:41;;;;;;;3.63;1.40;;;;;;;;;;5040075;28;20206;-73
2022/08/04 11:44:12;;;;;;;4.07;1.15;;;;;;;;;;5040788;28;20762;-70
2022/08/04 11:46:41;;;;;;;6.57;1.40;;;;;;;;;;5041249;28;20618;-72
2022/08/04 11:49:12;;;;;;;3.25;1.38;;;;;;;;;;5038149;28;20206;-73
2022/08/04 11:51:40;;;;;;;3.90;1.17;;;;;;;;;;5042199;28;20206;-72
2022/08/04 11:54:07;;;;;;;3.05;1.10;;;;;;;;;;5045232;28;20209;-70
2022/08/04 11:56:34;;;;;;;2.15;1.15;;;;;;;;;;5043569;28;20591;-70
2022/08/04 11:59:03;;;;;;;3.88;1.20;;;;;;;;;;5045963;28;20561;-71
2022/08/04 12:01:35;;;;;;;5.40;1.27;;;;;;;;;;5046399;28;20217;-71
2022/08/04 12:04:05;;;;;;;2.03;1.17;;;;;;;;;;5043838;28;20228;-72
2022/08/04 12:06:39;;;;;;;5.47;1.27;;;;;;;;;;5039757;28;20224;-71
2022/08/04 12:09:12;;;;;;;0.95;0.85;;;;;;;;;;5047375;28;20771;-72
2022/08/04 12:11:47;;;;;;;3.38;1.05;;;;;;;;;;5043920;28;20569;-71
2022/08/04 12:14:22;;;;;;;4.25;1.30;;;;;;;;;;5039464;28;20193;-70
2022/08/04 12:16:58;;;;;;;5.75;1.30;;;;;;;;;;5042881;28;20237;-71
2022/08/04 12:19:30;;;;;;;3.72;1.13;;;;;;;;;;5041980;28;20684;-72
2022/08/04 12:22:00;;;;;;;2.47;0.90;;;;;;;;;;5045127;28;20204;-73
2022/08/04 12:24:31;;;;;;;2.25;1.00;;;;;;;;;;5039010;28;20258;-72
2022/08/04 12:27:00;;;;;;;1.52;1.00;;;;;;;;;;5040321;28;20234;-72
2022/08/04 12:29:31;;;;;;;3.67;1.10;;;;;;;;;;5039247;28;20321;-72
2022/08/04 12:32:00;;;;;;;2.45;1.13;;;;;;;;;;5040160;28;20629;-72
2022/08/04 12:34:32;;;;;;;7.32;1.10;;;;;;;;;;5037378;28;20201;-71
2022/08/04 12:37:03;;;;;;;1.38;1.15;;;;;;;;;;5042335;28;20251;-71
2022/08/04 12:39:30;;;;;;;1.42;1.13;;;;;;;;;;5042521;28;20210;-70
2022/08/04 12:42:03;;;;;;;10.10;1.00;;;;;;;;;;5043765;28;20728;-71
2022/08/04 12:44:34;;;;;;;1.85;1.30;;;;;;;;;;5042227;28;20226;-72
2022/08/04 12:47:02;;;;;;;1.73;1.15;;;;;;;;;;5045265;28;20231;-72
2022/08/04 12:49:31;;;;;;;1.40;1.05;;;;;;;;;;5041414;28;20574;-71
2022/08/04 12:51:58;;;;;;;2.22;1.10;;;;;;;;;;5043768;28;20227;-70
2022/08/04 12:54:27;;;;;;;7.78;1.40;;;;;;;;;;5044258;28;20203;-70
2022/08/04 12:56:58;;;;;;;3.63;1.20;;;;;;;;;;5042987;28;20227;-71
2022/08/04 12:59:25;;;;;;;3.42;0.80;;;;;;;;;;5042564;28;20272;-72
2022/08/04 13:01:54;;;;;;;2.70;1.00;;;;;;;;;;5041796;28;20217;-71
2022/08/04 13:04:24;;;;;;;3.13;1.00;;;;;;;;;;5041464;28;20338;-71
2022/08/04 13:06:54;;;;;;;1.98;1.13;;;;;;;;;;5046994;28;20225;-71
2022/08/04 13:09:22;;;;;;;1.73;1.00;;;;;;;;;;5041668;28;20208;-70
2022/08/04 13:11:53;;;;;;;1.70;0.80;;;;;;;;;;5043252;28;20324;-74
2022/08/04 13:14:21;;;;;;;3.10;1.08;;;;;;;;;;5042725;28;20202;-71
2022/08/04 13:16:48;;;;;;;3.92;0.80;;;;;;;;;;5045245;28;20238;-71
2022/08/04 13:19:16;;;;;;;3.80;1.05;;;;;;;;;;5042248;28;20211;-71
2022/08/04 13:21:46;;;;;;;2.90;1.25;;;;;;;;;;5044824;28;20286;-70
2022/08/04 13:24:15;;;;;;;5.35;0.90;;;;;;;;;;5044785;28;20793;-72
2022/08/04 13:26:50;;;;;;;3.20;0.98;;;;;;;;;;5043309;28;20227;-71
2022/08/04 13:29:19;;;;;;;1.83;1.30;;;;;;;;;;5040285;28;20213;-71
2022/08/04 13:31:47;;;;;;;4.18;1.17;;;;;;;;;;5044179;28;20211;-71
2022/08/04 13:34:15;;;;;;;1.55;1.02;;;;;;;;;;5043395;28;21946;-70
2022/08/04 13:36:44;;;;;;;4.95;1.15;;;;;;;;;;5048464;28;20874;-72
2022/08/04 13:39:16;;;;;;;2.50;1.08;;;;;;;;;;5043737;28;20760;-72
2022/08/04 13:41:46;;;;;;;2.78;1.20;;;;;;;;;;5045059;28;20225;-72
2022/08/04 13:44:14;;;;;;;2.13;1.50;;;;;;;;;;5042929;28;20321;-71
2022/08/04 13:46:46;;;;;;;3.78;1.25;;;;;;;;;;5037481;28;20763;-70
2022/08/04 13:49:17;;;;;;;4.47;1.20;;;;;;;;;;5038430;28;20220;-72
2022/08/04 13:51:48;;;;;;;3.85;1.30;;;;;;;;;;5038663;28;20224;-72
2022/08/04 13:54:15;;;;;;;4.97;1.52;;;;;;;;;;5039644;28;20679;-72
2022/08/04 13:56:45;;;;;;;4.50;1.60;;;;;;;;;;5040730;28;20225;-71
2022/08/04 13:59:14;;;;;;;5.22;1.48;;;;;;;;;;5038152;28;20305;-71
2022/08/04 14:01:44;;;;;;;3.92;1.33;;;;;;;;;;5041421;28;20206;-70
2022/08/04 14:04:13;;;;;;;6.05;1.48;;;;;;;;;;5040910;28;20221;-72
2022/08/04 14:06:47;;;;;;;2.60;1.20;;;;;;;;;;5040212;28;20230;-73
2022/08/04 14:09:16;;;;;;;4.47;1.38;;;;;;;;;;5039900;28;20327;-73
2022/08/04 14:11:43;;;;;;;4.97;1.27;;;;;;;;;;5039198;28;20674;-71
2022/08/04 14:14:15;;;;;;;4.05;1.48;;;;;;;;;;5040840;28;20208;-72
2022/08/04 14:16:57;;;;;;;4.85;1.40;;;;;;;;;;5039916;28;20232;-72
2022/08/04 14:19:24;;;;;;;4.03;1.35;;;;;;;;;;5041570;28;20215;-72
2022/08/04 14:21:51;;;;;;;3.72;1.50;;;;;;;;;;5043011;28;20210;-72
2022/08/04 14:24:23;;;;;;;4.38;1.50;;;;;;;;;;5041543;28;20239;-73
2022/08/04 14:26:51;;;;;;;2.65;1.30;;;;;;;;;;5037891;28;20226;-72
2022/08/04 14:29:19;;;;;;;4.75;1.60;;;;;;;;;;5042598;28;20201;-72
2022/08/04 14:31:48;;;;;;;2.00;1.27;;;;;;;;;;5041521;28;20267;-72
2022/08/04 14:34:27;;;;;;;2.00;1.40;;;;;;;;;;5036955;28;20231;-73
2022/08/04 14:36:54;;;;;;;4.15;1.40;;;;;;;;;;5038197;28;20225;-71
2022/08/04 14:39:37;;;;;;;3.50;1.17;;;;;;;;;;5040271;28;20300;-73
2022/08/04 14:42:05;;;;;;;2.25;1.38;;;;;;;;;;5041736;28;20204;-73
2022/08/04 14:44:32;;;;;;;5.47;1.30;;;;;;;;;;5039408;28;20240;-72
2022/08/04 14:47:00;;;;;;;8.10;1.58;;;;;;;;;;5041539;28;20230;-73
2022/08/04 14:49:29;;;;;;;2.78;1.48;;;;;;;;;;5040064;28;20221;-71
2022/08/04 14:51:57;;;;;;;6.15;1.33;;;;;;;;;;5039417;28;20296;-69
2022/08/04 14:54:28;;;;;;;5.07;1.20;;;;;;;;;;5042050;28;20310;-70
2022/08/04 14:56:57;;;;;;;1.75;1.30;;;;;;;;;;5041507;28;20311;-70
2022/08/04 14:59:24;;;;;;;1.75;1.20;;;;;;;;;;5039625;28;20252;-70
2022/08/04 15:01:52;;;;;;;2.30;1.10;;;;;;;;;;5042917;28;20218;-70
2022/08/04 15:04:20;;;;;;;2.03;1.05;;;;;;;;;;5037136;28;20231;-70
2022/08/04 15:06:48;;;;;;;4.70;1.50;;;;;;;;;;5038385;28;20234;-71
2022/08/04 15:09:15;;;;;;;7.20;1.50;;;;;;;;;;5038975;28;20286;-71